createdAt,value
2018-09-22T00:00:02.048Z,53.78
2018-09-22T00:02:30.971Z,126.80
2018-09-22T00:04:59.887Z,105.00
2018-09-22T00:07:28.867Z,96.10
2018-09-22T00:09:57.774Z,57.47
2018-09-22T00:12:26.703Z,57.70
2018-09-22T00:14:55.571Z,59.97
2018-09-22T00:17:24.564Z,61.83
2018-09-22T00:19:53.558Z,55.10
2018-09-22T00:22:22.523Z,56.43
2018-09-22T00:24:51.524Z,54.67
2018-09-22T00:27:20.608Z,57.17
2018-09-22T00:29:49.560Z,53.23
2018-09-22T00:32:18.546Z,51.27
2018-09-22T00:34:47.448Z,51.30
2018-09-22T00:37:16.326Z,55.67
2018-09-22T00:39:45.333Z,52.00
2018-09-22T00:42:14.182Z,53.33
2018-09-22T00:44:43.083Z,50.77
2018-09-22T00:47:12.030Z,55.73
2018-09-22T00:49:40.951Z,56.63
2018-09-22T00:52:10.097Z,63.00
2018-09-22T00:54:39.083Z,55.20
2018-09-22T00:57:07.959Z,52.27
2018-09-22T00:59:36.894Z,56.47
2018-09-22T01:02:07.062Z,65.20
2018-09-22T01:04:35.947Z,60.20
2018-09-22T01:07:04.896Z,55.73
2018-09-22T01:09:33.847Z,59.57
2018-09-22T01:12:02.783Z,56.67
2018-09-22T01:14:32.016Z,56.50
2018-09-22T01:17:00.877Z,61.23
2018-09-22T01:19:29.832Z,51.10
2018-09-22T01:21:58.777Z,61.73
2018-09-22T01:24:27.721Z,56.60
2018-09-22T01:26:56.588Z,54.17
2018-09-22T01:29:25.634Z,55.30
2018-09-22T01:31:54.599Z,57.03
2018-09-22T01:34:23.510Z,50.60
2018-09-22T01:36:52.658Z,49.47
2018-09-22T01:39:21.544Z,48.40
2018-09-22T01:41:50.446Z,50.77
2018-09-22T01:44:19.504Z,48.13
2018-09-22T01:46:48.424Z,47.27
2018-09-22T01:49:17.329Z,40.73
2018-09-22T01:51:46.215Z,38.70
2018-09-22T01:54:15.122Z,37.53
2018-09-22T01:56:44.092Z,37.40
2018-09-22T01:59:12.941Z,36.93
2018-09-22T02:01:41.873Z,37.20
2018-09-22T02:04:10.776Z,46.00
2018-09-22T02:06:39.626Z,41.27
2018-09-22T02:09:09.763Z,42.57
2018-09-22T02:11:40.570Z,38.87
2018-09-22T02:14:09.511Z,34.37
2018-09-22T02:16:38.383Z,36.03
2018-09-22T02:19:07.406Z,36.93
2018-09-22T02:21:36.282Z,49.03
2018-09-22T02:24:05.162Z,63.57
2018-09-22T02:26:34.268Z,55.93
2018-09-22T02:29:03.165Z,60.70
2018-09-22T02:31:32.002Z,58.60
2018-09-22T02:34:00.851Z,66.13
2018-09-22T02:36:29.720Z,49.77
2018-09-22T02:38:58.603Z,47.80
2018-09-22T02:41:27.568Z,59.57
2018-09-22T02:43:56.457Z,62.23
2018-09-22T02:46:25.365Z,67.03
2018-09-22T02:48:54.208Z,62.07
2018-09-22T02:51:23.049Z,67.27
2018-09-22T02:53:52.090Z,62.87
2018-09-22T02:56:21.009Z,64.47
2018-09-22T02:58:49.926Z,66.33
2018-09-22T03:01:18.959Z,52.87
2018-09-22T03:03:47.852Z,56.70
2018-09-22T03:06:16.760Z,50.70
2018-09-22T03:08:45.683Z,49.13
2018-09-22T03:11:14.567Z,42.33
2018-09-22T03:13:43.468Z,42.13
2018-09-22T03:16:12.421Z,38.63
2018-09-22T03:18:41.252Z,38.70
2018-09-22T03:21:10.059Z,44.40
2018-09-22T03:23:39.011Z,42.37
2018-09-22T03:26:08.323Z,39.27
2018-09-22T03:28:37.220Z,40.83
2018-09-22T03:31:06.165Z,36.00
2018-09-22T03:33:35.059Z,36.13
2018-09-22T03:36:03.914Z,35.50
2018-09-22T03:38:32.835Z,37.10
2018-09-22T03:41:01.695Z,46.97
2018-09-22T03:43:30.595Z,48.67
2018-09-22T03:45:59.539Z,52.77
2018-09-22T03:48:28.458Z,66.73
2018-09-22T03:50:57.400Z,51.33
2018-09-22T03:53:26.255Z,59.13
2018-09-22T03:55:57.899Z,54.40
2018-09-22T03:58:26.839Z,54.53
2018-09-22T04:00:55.692Z,54.70
2018-09-22T04:03:24.597Z,49.40
2018-09-22T04:05:54.878Z,53.13
2018-09-22T04:08:23.788Z,53.53
2018-09-22T04:10:52.611Z,51.70
2018-09-22T04:13:21.495Z,58.10
2018-09-22T04:15:50.348Z,53.60
2018-09-22T04:18:19.228Z,62.63
2018-09-22T04:20:50.151Z,57.20
2018-09-22T04:23:19.032Z,45.70
2018-09-22T04:25:47.963Z,41.77
2018-09-22T04:28:16.887Z,42.37
2018-09-22T04:30:45.879Z,47.27
2018-09-22T04:33:14.782Z,42.47
2018-09-22T04:35:43.735Z,45.03
2018-09-22T04:38:12.719Z,39.83
2018-09-22T04:40:41.701Z,57.50
2018-09-22T04:43:10.783Z,42.43
2018-09-22T04:45:39.726Z,36.20
2018-09-22T04:48:08.648Z,33.33
2018-09-22T04:50:37.593Z,35.60
2018-09-22T04:53:06.477Z,40.93
2018-09-22T04:55:35.385Z,54.37
2018-09-22T04:58:04.378Z,52.53
2018-09-22T05:00:33.256Z,54.60
2018-09-22T05:03:02.175Z,41.60
2018-09-22T05:05:32.267Z,47.80
2018-09-22T05:08:01.236Z,45.37
2018-09-22T05:10:30.127Z,51.47
2018-09-22T05:12:59.091Z,38.03
2018-09-22T05:15:28.127Z,37.03
2018-09-22T05:17:57.012Z,28.87
2018-09-22T05:20:25.901Z,29.00
2018-09-22T05:22:54.915Z,38.93
2018-09-22T05:25:23.886Z,49.90
2018-09-22T05:27:52.831Z,50.87
2018-09-22T05:30:21.770Z,49.67
2018-09-22T05:32:50.717Z,41.30
2018-09-22T05:35:19.579Z,40.80
2018-09-22T05:37:48.512Z,50.13
2018-09-22T05:40:17.428Z,47.20
2018-09-22T05:42:46.287Z,45.33
2018-09-22T05:45:15.259Z,45.00
2018-09-22T05:47:44.193Z,47.97
2018-09-22T05:50:13.144Z,52.97
2018-09-22T05:52:42.078Z,51.43
2018-09-22T05:55:11.103Z,49.57
2018-09-22T05:57:40.007Z,50.43
2018-09-22T06:00:09.118Z,52.73
2018-09-22T06:02:38.005Z,59.60
2018-09-22T06:05:06.901Z,59.33
2018-09-22T06:07:35.898Z,59.53
2018-09-22T06:10:04.835Z,67.00
2018-09-22T06:12:33.760Z,64.57
2018-09-22T06:15:02.668Z,46.63
2018-09-22T06:17:31.545Z,49.00
2018-09-22T06:20:00.475Z,39.37
2018-09-22T06:22:29.361Z,42.83
2018-09-22T06:24:59.667Z,41.23
2018-09-22T06:27:28.599Z,37.07
2018-09-22T06:29:57.555Z,33.67
2018-09-22T06:32:26.463Z,31.27
2018-09-22T06:34:55.495Z,34.00
2018-09-22T06:37:24.442Z,32.23
2018-09-22T06:39:53.563Z,30.17
2018-09-22T06:42:22.410Z,30.13
2018-09-22T06:44:51.544Z,39.73
2018-09-22T06:47:20.562Z,54.03
2018-09-22T06:49:49.397Z,53.20
2018-09-22T06:52:18.332Z,54.23
2018-09-22T06:54:47.279Z,54.17
2018-09-22T06:57:16.315Z,51.67
2018-09-22T06:59:45.314Z,52.37
2018-09-22T07:02:14.266Z,52.80
2018-09-22T07:04:43.231Z,43.63
2018-09-22T07:07:12.209Z,32.13
2018-09-22T07:09:42.484Z,29.67
2018-09-22T07:12:11.399Z,28.30
2018-09-22T07:14:40.370Z,22.20
2018-09-22T07:17:10.991Z,20.97
2018-09-22T07:19:40.050Z,19.73
2018-09-22T07:22:15.577Z,19.13
2018-09-22T07:24:44.534Z,17.60
2018-09-22T07:27:13.492Z,16.20
2018-09-22T07:29:42.575Z,17.67
2018-09-22T07:32:11.572Z,15.93
2018-09-22T07:34:40.647Z,17.03
2018-09-22T07:37:10.982Z,15.80
2018-09-22T07:39:39.834Z,15.80
2018-09-22T07:42:08.729Z,19.83
2018-09-22T07:44:37.643Z,15.23
2018-09-22T07:47:06.985Z,15.33
2018-09-22T07:49:36.030Z,15.00
2018-09-22T07:52:05.088Z,17.27
2018-09-22T07:54:35.483Z,15.73
2018-09-22T07:57:04.377Z,15.47
2018-09-22T07:59:33.317Z,14.90
2018-09-22T08:02:02.319Z,15.57
2018-09-22T08:04:31.174Z,14.67
2018-09-22T08:07:00.098Z,15.97
2018-09-22T08:09:29.043Z,15.57
2018-09-22T08:11:57.966Z,17.10
2018-09-22T08:14:28.474Z,16.70
2018-09-22T08:16:57.586Z,15.07
2018-09-22T08:19:26.423Z,15.93
2018-09-22T08:21:55.419Z,16.90
2018-09-22T08:24:24.376Z,16.50
2018-09-22T08:26:53.507Z,30.73
2018-09-22T08:29:22.480Z,18.50
2018-09-22T08:31:51.466Z,13.63
2018-09-22T08:34:21.754Z,21.67
2018-09-22T08:36:50.747Z,20.70
2018-09-22T08:39:19.649Z,16.00
2018-09-22T08:41:48.630Z,13.27
2018-09-22T08:44:17.567Z,13.27
2018-09-22T08:46:46.450Z,19.60
2018-09-22T08:49:15.307Z,14.47
2018-09-22T08:51:44.405Z,12.17
2018-09-22T08:54:13.289Z,13.83
2018-09-22T08:56:42.174Z,22.47
2018-09-22T08:59:11.218Z,18.87
2018-09-22T09:01:40.527Z,15.90
2018-09-22T09:04:09.538Z,17.97
2018-09-22T09:06:38.458Z,10.37
2018-09-22T09:09:08.862Z,17.50
2018-09-22T09:11:37.768Z,13.40
2018-09-22T09:14:06.961Z,16.17
2018-09-22T09:16:35.892Z,8.37
2018-09-22T09:19:05.207Z,14.93
2018-09-22T09:21:34.099Z,8.83
2018-09-22T09:24:03.022Z,9.83
2018-09-22T09:26:31.962Z,15.90
2018-09-22T09:29:01.064Z,9.17
2018-09-22T09:31:30.011Z,16.93
2018-09-22T09:33:59.005Z,13.93
2018-09-22T09:36:27.931Z,9.53
2018-09-22T09:39:00.136Z,10.33
2018-09-22T09:41:29.119Z,9.70
2018-09-22T09:43:58.043Z,9.43
2018-09-22T09:46:27.224Z,10.13
2018-09-22T09:48:56.250Z,10.87
2018-09-22T09:51:25.149Z,8.37
2018-09-22T09:53:54.002Z,10.43
2018-09-22T09:56:22.872Z,14.00
2018-09-22T09:58:51.842Z,8.83
2018-09-22T10:01:20.749Z,9.00
2018-09-22T10:03:49.928Z,8.90
2018-09-22T10:06:18.996Z,9.27
2018-09-22T10:08:47.852Z,7.70
2018-09-22T10:11:16.755Z,9.47
2018-09-22T10:13:45.797Z,9.73
2018-09-22T10:16:14.665Z,9.00
2018-09-22T10:18:43.781Z,11.63
2018-09-22T10:21:12.850Z,9.70
2018-09-22T10:23:41.723Z,7.87
2018-09-22T10:26:10.780Z,8.33
2018-09-22T10:28:39.804Z,8.33
2018-09-22T10:31:08.641Z,8.03
2018-09-22T10:33:37.591Z,7.80
2018-09-22T10:36:06.555Z,8.97
2018-09-22T10:38:35.508Z,8.37
2018-09-22T10:41:04.512Z,7.30
2018-09-22T10:43:33.536Z,12.47
2018-09-22T10:46:03.213Z,9.07
2018-09-22T10:48:32.123Z,8.63
2018-09-22T10:51:01.090Z,7.83
2018-09-22T10:53:29.995Z,12.40
2018-09-22T10:55:58.955Z,8.00
2018-09-22T10:58:29.083Z,8.17
2018-09-22T11:00:57.996Z,9.30
2018-09-22T11:03:27.025Z,8.80
2018-09-22T11:05:57.196Z,9.13
2018-09-22T11:08:26.045Z,9.10
2018-09-22T11:10:54.964Z,11.30
2018-09-22T11:13:24.040Z,11.00
2018-09-22T11:15:53.007Z,10.63
2018-09-22T11:18:21.976Z,10.30
2018-09-22T11:20:51.411Z,7.00
2018-09-22T11:23:20.565Z,7.60
2018-09-22T11:25:49.601Z,7.73
2018-09-22T11:28:18.573Z,8.27
2018-09-22T11:30:47.506Z,9.60
2018-09-22T11:33:17.180Z,9.40
2018-09-22T11:35:47.648Z,8.73
2018-09-22T11:38:16.640Z,8.57
2018-09-22T11:40:45.594Z,7.33
2018-09-22T11:43:15.789Z,7.30
2018-09-22T11:45:44.944Z,21.70
2018-09-22T11:48:13.946Z,8.03
2018-09-22T11:50:42.995Z,8.27
2018-09-22T11:53:11.895Z,7.23
2018-09-22T11:55:40.860Z,15.33
2018-09-22T11:58:11.133Z,9.10
2018-09-22T12:00:40.059Z,7.23
2018-09-22T12:03:08.975Z,9.23
2018-09-22T12:05:38.065Z,6.40
2018-09-22T12:08:06.999Z,10.30
2018-09-22T12:10:35.991Z,7.60
2018-09-22T12:13:06.352Z,7.33
2018-09-22T12:15:35.330Z,8.30
2018-09-22T12:18:04.270Z,8.10
2018-09-22T12:20:33.284Z,10.23
2018-09-22T12:23:02.265Z,11.30
2018-09-22T12:25:32.558Z,11.70
2018-09-22T12:28:02.737Z,7.83
2018-09-22T12:30:31.650Z,10.13
2018-09-22T12:33:00.561Z,9.38
2018-09-22T12:35:31.096Z,8.70
2018-09-22T12:38:00.036Z,7.80
2018-09-22T12:40:29.000Z,8.20
2018-09-22T12:42:59.200Z,10.90
2018-09-22T12:45:28.341Z,7.80
2018-09-22T12:47:57.267Z,7.47
2018-09-22T12:50:26.322Z,11.00
2018-09-22T12:52:56.539Z,7.97
2018-09-22T12:55:25.513Z,8.50
2018-09-22T12:57:54.530Z,6.50
2018-09-22T13:00:23.637Z,8.73
2018-09-22T13:02:52.579Z,9.37
2018-09-22T13:05:21.756Z,9.20
2018-09-22T13:07:50.834Z,9.07
2018-09-22T13:10:19.806Z,7.53
2018-09-22T13:12:48.790Z,6.60
2018-09-22T13:15:17.902Z,9.23
2018-09-22T13:17:46.860Z,8.07
2018-09-22T13:20:15.881Z,9.20
2018-09-22T13:22:44.952Z,10.80
2018-09-22T13:25:13.913Z,9.60
2018-09-22T13:27:44.241Z,8.73
2018-09-22T13:30:13.167Z,7.90
2018-09-22T13:32:42.129Z,8.33
2018-09-22T13:35:11.140Z,8.30
2018-09-22T13:37:40.061Z,9.57
2018-09-22T13:40:09.052Z,10.10
2018-09-22T13:42:44.547Z,7.87
2018-09-22T13:45:13.545Z,13.43
2018-09-22T13:47:42.515Z,8.80
2018-09-22T13:50:12.984Z,8.67
2018-09-22T13:52:41.918Z,9.00
2018-09-22T13:55:10.941Z,9.07
2018-09-22T13:57:39.914Z,8.77
2018-09-22T14:00:08.985Z,9.27
2018-09-22T14:02:37.979Z,8.57
2018-09-22T14:05:07.020Z,8.83
2018-09-22T14:07:36.264Z,9.40
2018-09-22T14:10:05.463Z,8.47
2018-09-22T14:12:34.453Z,7.77
2018-09-22T14:15:03.457Z,8.07
2018-09-22T14:17:32.387Z,8.33
2018-09-22T14:20:01.321Z,9.90
2018-09-22T14:22:30.313Z,10.20
2018-09-22T14:24:59.269Z,12.53
2018-09-22T14:27:29.624Z,9.70
2018-09-22T14:29:59.009Z,9.17
2018-09-22T14:32:27.966Z,8.43
2018-09-22T14:34:56.989Z,7.83
2018-09-22T14:37:25.940Z,9.33
2018-09-22T14:39:54.956Z,11.87
2018-09-22T14:42:23.903Z,7.97
2018-09-22T14:44:52.908Z,10.20
2018-09-22T14:47:21.879Z,8.43
2018-09-22T14:49:50.870Z,9.10
2018-09-22T14:52:19.860Z,10.03
2018-09-22T14:54:48.864Z,11.00
2018-09-22T14:57:17.817Z,8.40
2018-09-22T14:59:46.731Z,9.33
2018-09-22T15:02:15.695Z,10.40
2018-09-22T15:04:44.640Z,10.57
2018-09-22T15:07:13.557Z,10.67
2018-09-22T15:09:42.573Z,12.33
2018-09-22T15:12:11.518Z,11.77
2018-09-22T15:14:40.647Z,9.87
2018-09-22T15:17:09.621Z,10.17
2018-09-22T15:19:38.558Z,13.03
2018-09-22T15:22:07.879Z,10.13
2018-09-22T15:24:38.576Z,9.03
2018-09-22T15:27:07.755Z,11.73
2018-09-22T15:29:36.733Z,10.93
2018-09-22T15:32:07.192Z,13.33
2018-09-22T15:34:36.175Z,11.40
2018-09-22T15:37:05.336Z,11.67
2018-09-22T15:39:34.344Z,12.40
2018-09-22T15:42:03.324Z,11.73
2018-09-22T15:44:33.618Z,12.53
2018-09-22T15:47:04.004Z,10.80
2018-09-22T15:49:33.577Z,12.23
2018-09-22T15:52:02.597Z,12.97
2018-09-22T15:54:31.600Z,15.63
2018-09-22T15:57:00.711Z,11.93
2018-09-22T15:59:29.725Z,14.40
2018-09-22T16:01:58.710Z,13.33
2018-09-22T16:04:27.902Z,14.83
2018-09-22T16:06:58.530Z,12.97
2018-09-22T16:09:27.659Z,12.80
2018-09-22T16:11:58.013Z,11.73
2018-09-22T16:14:28.411Z,15.77
2018-09-22T16:16:57.413Z,13.40
2018-09-22T16:19:26.639Z,12.07
2018-09-22T16:21:56.843Z,14.17
2018-09-22T16:24:25.814Z,12.17
2018-09-22T16:26:54.801Z,19.00
2018-09-22T16:29:23.845Z,11.97
2018-09-22T16:31:54.135Z,13.30
2018-09-22T16:34:23.157Z,13.07
2018-09-22T16:36:52.115Z,12.17
2018-09-22T16:39:21.163Z,12.53
2018-09-22T16:41:50.203Z,13.43
2018-09-22T16:44:19.186Z,12.97
2018-09-22T16:46:49.556Z,11.50
2018-09-22T16:49:18.553Z,14.87
2018-09-22T16:51:47.499Z,14.77
2018-09-22T16:54:17.740Z,16.97
2018-09-22T16:56:46.788Z,19.33
2018-09-22T16:59:15.821Z,17.97
2018-09-22T17:01:44.805Z,14.00
2018-09-22T17:04:13.840Z,13.97
2018-09-22T17:06:42.824Z,13.10
2018-09-22T17:09:11.802Z,19.37
2018-09-22T17:11:40.772Z,13.60
2018-09-22T17:14:09.756Z,12.10
2018-09-22T17:16:38.788Z,14.70
2018-09-22T17:19:08.101Z,12.57
2018-09-22T17:21:37.065Z,13.00
2018-09-22T17:24:06.088Z,13.97
2018-09-22T17:26:35.124Z,15.80
2018-09-22T17:29:04.100Z,15.07
2018-09-22T17:31:33.091Z,14.90
2018-09-22T17:34:03.637Z,13.73
2018-09-22T17:36:32.678Z,14.73
2018-09-22T17:39:01.670Z,16.87
2018-09-22T17:41:30.703Z,17.00
2018-09-22T17:43:59.668Z,15.03
2018-09-22T17:46:28.702Z,14.80
2018-09-22T17:48:57.848Z,17.00
2018-09-22T17:51:26.820Z,12.93
2018-09-22T17:53:55.996Z,14.37
2018-09-22T17:56:25.040Z,16.67
2018-09-22T17:58:53.998Z,14.70
2018-09-22T18:01:23.012Z,14.13
2018-09-22T18:03:52.097Z,14.17
2018-09-22T18:06:21.191Z,13.60
2018-09-22T18:08:50.179Z,13.93
2018-09-22T18:11:19.245Z,14.65
2018-09-22T18:13:48.205Z,14.53
2018-09-22T18:16:17.319Z,15.37
2018-09-22T18:18:46.340Z,14.03
2018-09-22T18:21:15.459Z,15.47
2018-09-22T18:23:44.473Z,15.60
2018-09-22T18:26:13.468Z,14.90
2018-09-22T18:28:42.537Z,15.03
2018-09-22T18:31:11.580Z,15.63
2018-09-22T18:33:40.580Z,17.33
2018-09-22T18:36:09.554Z,15.00
2018-09-22T18:38:38.506Z,15.23
2018-09-22T18:41:07.533Z,15.57
2018-09-22T18:43:36.578Z,15.77
2018-09-22T18:46:05.539Z,20.08
2018-09-22T18:48:35.848Z,19.03
2018-09-22T18:51:06.270Z,21.37
2018-09-22T18:53:35.302Z,26.53
2018-09-22T18:56:04.304Z,26.53
2018-09-22T18:58:34.671Z,19.30
2018-09-22T19:01:03.635Z,19.47
2018-09-22T19:03:32.630Z,17.70
2018-09-22T19:06:02.956Z,16.97
2018-09-22T19:08:31.924Z,18.53
2018-09-22T19:11:00.887Z,17.37
2018-09-22T19:13:32.631Z,18.03
2018-09-22T19:16:12.056Z,19.07
2018-09-22T19:18:51.732Z,19.10
2018-09-22T19:21:30.808Z,17.43
2018-09-22T19:24:02.661Z,17.10
2018-09-22T19:26:35.286Z,19.20
2018-09-22T19:29:12.050Z,18.10
2018-09-22T19:31:45.618Z,17.47
2018-09-22T19:34:17.698Z,17.07
2018-09-22T19:37:03.712Z,17.57
2018-09-22T19:39:43.160Z,16.33
2018-09-22T19:42:16.684Z,17.33
2018-09-22T19:44:51.877Z,16.17
2018-09-22T19:47:30.287Z,15.23
2018-09-22T19:50:04.267Z,16.97
2018-09-22T19:52:38.621Z,18.07
2018-09-22T19:55:08.871Z,18.27
2018-09-22T19:57:37.893Z,16.67
2018-09-22T20:00:07.386Z,22.67
2018-09-22T20:02:36.364Z,18.80
2018-09-22T20:05:05.376Z,20.53
2018-09-22T20:07:34.581Z,18.10
2018-09-22T20:10:05.091Z,20.67
2018-09-22T20:12:34.063Z,18.37
2018-09-22T20:15:03.042Z,19.37
2018-09-22T20:17:32.138Z,17.93
2018-09-22T20:20:01.082Z,17.40
2018-09-22T20:22:30.032Z,16.80
2018-09-22T20:25:00.355Z,15.47
2018-09-22T20:27:30.280Z,16.60
2018-09-22T20:29:59.230Z,17.10
2018-09-22T20:32:29.393Z,16.70
2018-09-22T20:34:58.383Z,17.63
2018-09-22T20:37:27.384Z,18.80
2018-09-22T20:39:56.372Z,19.77
2018-09-22T20:42:25.365Z,22.23
2018-09-22T20:44:54.309Z,22.03
2018-09-22T20:47:23.227Z,19.37
2018-09-22T20:49:52.391Z,21.97
2018-09-22T20:52:21.309Z,21.67
2018-09-22T20:54:50.240Z,20.50
2018-09-22T20:57:20.475Z,21.50
2018-09-22T20:59:49.408Z,20.77
2018-09-22T21:02:18.425Z,20.33
2018-09-22T21:04:47.404Z,19.70
2018-09-22T21:07:16.327Z,20.67
2018-09-22T21:09:45.260Z,20.53
2018-09-22T21:12:14.255Z,22.13
2018-09-22T21:14:43.193Z,21.77
2018-09-22T21:17:12.170Z,20.37
2018-09-22T21:19:41.127Z,21.73
2018-09-22T21:22:10.261Z,20.73
2018-09-22T21:24:39.178Z,20.73
2018-09-22T21:27:08.128Z,20.47
2018-09-22T21:29:37.078Z,20.13
2018-09-22T21:32:06.144Z,20.60
2018-09-22T21:34:35.103Z,21.85
2018-09-22T21:37:04.032Z,20.50
2018-09-22T21:39:34.276Z,20.80
2018-09-22T21:42:03.201Z,21.03
2018-09-22T21:44:32.111Z,18.83
2018-09-22T21:47:01.116Z,20.47
2018-09-22T21:49:30.037Z,21.23
2018-09-22T21:51:59.097Z,23.07
2018-09-22T21:54:28.063Z,22.67
2018-09-22T21:56:56.940Z,20.90
2018-09-22T21:59:25.935Z,20.07
2018-09-22T22:01:54.903Z,21.53
2018-09-22T22:04:23.851Z,23.00
2018-09-22T22:06:52.771Z,22.58
2018-09-22T22:09:23.076Z,20.70
2018-09-22T22:11:51.988Z,20.70
2018-09-22T22:14:20.912Z,21.57
2018-09-22T22:16:49.912Z,21.30
2018-09-22T22:19:18.855Z,22.50
2018-09-22T22:21:47.827Z,21.23
2018-09-22T22:24:16.820Z,20.87
2018-09-22T22:26:45.762Z,20.80
2018-09-22T22:29:14.711Z,22.43
2018-09-22T22:31:43.770Z,21.30
2018-09-22T22:34:12.771Z,21.57
2018-09-22T22:36:41.724Z,36.90
2018-09-22T22:39:12.040Z,32.53
2018-09-22T22:41:40.963Z,44.37
2018-09-22T22:44:09.980Z,34.13
2018-09-22T22:46:39.005Z,41.47
2018-09-22T22:49:07.952Z,38.37
2018-09-22T22:51:38.099Z,35.33
2018-09-22T22:54:07.135Z,38.77
2018-09-22T22:56:36.039Z,32.20
2018-09-22T22:59:04.964Z,26.23
2018-09-22T23:01:33.870Z,21.50
2018-09-22T23:04:03.046Z,23.00
2018-09-22T23:06:31.962Z,20.10
2018-09-22T23:09:00.860Z,23.03
2018-09-22T23:11:29.839Z,22.20
2018-09-22T23:13:58.823Z,23.67
2018-09-22T23:16:27.740Z,19.03
2018-09-22T23:18:56.618Z,21.63
2018-09-22T23:21:25.463Z,17.57
2018-09-22T23:23:54.419Z,18.00
2018-09-22T23:26:24.712Z,15.30
2018-09-22T23:28:53.561Z,16.03
2018-09-22T23:31:22.383Z,17.90
2018-09-22T23:33:51.352Z,20.90
2018-09-22T23:36:20.220Z,21.77
2018-09-22T23:38:49.104Z,48.57
2018-09-22T23:41:18.019Z,45.70
2018-09-22T23:43:46.933Z,27.07
2018-09-22T23:46:15.964Z,22.03
2018-09-22T23:48:44.879Z,17.00
2018-09-22T23:51:13.820Z,17.07
2018-09-22T23:53:42.711Z,16.70
2018-09-22T23:56:11.665Z,14.13
2018-09-22T23:58:40.555Z,20.33
